sensor_id;sensor_type;location;lat;lon;timestamp;temperature;humidity
39919;DHT22;25589;51.552;13.424;2023-12-29T00:01:59;8.70;99.90
39919;DHT22;25589;51.552;13.424;2023-12-29T00:04:27;8.60;99.90
39919;DHT22;25589;51.552;13.424;2023-12-29T00:06:53;8.70;99.90
39919;DHT22;25589;51.552;13.424;2023-12-29T00:09:18;8.60;99.90
39919;DHT22;25589;51.552;13.424;2023-12-29T00:11:47;8.30;99.90
39919;DHT22;25589;51.552;13.424;2023-12-29T00:14:13;8.40;99.90
39919;DHT22;25589;51.552;13.424;2023-12-29T00:16:38;8.60;99.90
39919;DHT22;25589;51.552;13.424;2023-12-29T00:19:04;8.70;99.90
39919;DHT22;25589;51.552;13.424;2023-12-29T00:21:29;8.60;99.90
39919;DHT22;25589;51.552;13.424;2023-12-29T00:23:55;8.70;99.90
39919;DHT22;25589;51.552;13.424;2023-12-29T00:26:22;8.40;99.90
39919;DHT22;25589;51.552;13.424;2023-12-29T00:28:54;8.50;99.90
39919;DHT22;25589;51.552;13.424;2023-12-29T00:31:19;8.50;99.90
39919;DHT22;25589;51.552;13.424;2023-12-29T00:33:45;8.50;99.90
39919;DHT22;25589;51.552;13.424;2023-12-29T00:36:18;8.60;99.90
39919;DHT22;25589;51.552;13.424;2023-12-29T00:38:44;7.60;99.90
39919;DHT22;25589;51.552;13.424;2023-12-29T00:41:10;8.50;99.90
39919;DHT22;25589;51.552;13.424;2023-12-29T00:43:35;8.50;99.90
39919;DHT22;25589;51.552;13.424;2023-12-29T00:46:02;8.40;99.90
39919;DHT22;25589;51.552;13.424;2023-12-29T00:48:30;8.50;99.90
39919;DHT22;25589;51.552;13.424;2023-12-29T00:50:56;8.40;99.90
39919;DHT22;25589;51.552;13.424;2023-12-29T00:55:47;8.50;99.90
39919;DHT22;25589;51.552;13.424;2023-12-29T00:58:13;8.40;99.90
39919;DHT22;25589;51.552;13.424;2023-12-29T01:00:39;8.50;99.90
39919;DHT22;25589;51.552;13.424;2023-12-29T01:03:05;8.90;99.90
39919;DHT22;25589;51.552;13.424;2023-12-29T01:05:30;8.50;99.90
39919;DHT22;25589;51.552;13.424;2023-12-29T01:07:56;8.90;99.90
39919;DHT22;25589;51.552;13.424;2023-12-29T01:10:21;8.20;99.90
39919;DHT22;25589;51.552;13.424;2023-12-29T01:12:47;8.60;99.90
39919;DHT22;25589;51.552;13.424;2023-12-29T01:15:14;8.70;99.90
39919;DHT22;25589;51.552;13.424;2023-12-29T01:17:40;9.00;99.90
39919;DHT22;25589;51.552;13.424;2023-12-29T01:20:06;8.70;99.90
39919;DHT22;25589;51.552;13.424;2023-12-29T01:22:31;8.60;99.90
39919;DHT22;25589;51.552;13.424;2023-12-29T01:24:59;8.30;99.90
39919;DHT22;25589;51.552;13.424;2023-12-29T01:27:25;8.60;99.90
39919;DHT22;25589;51.552;13.424;2023-12-29T01:29:51;9.10;99.90
39919;DHT22;25589;51.552;13.424;2023-12-29T01:32:18;8.30;99.90
39919;DHT22;25589;51.552;13.424;2023-12-29T01:34:44;7.50;99.90
39919;DHT22;25589;51.552;13.424;2023-12-29T01:37:09;8.50;99.90
39919;DHT22;25589;51.552;13.424;2023-12-29T01:39:36;8.20;99.90
39919;DHT22;25589;51.552;13.424;2023-12-29T01:42:02;8.50;99.90
39919;DHT22;25589;51.552;13.424;2023-12-29T01:44:27;8.40;99.90
39919;DHT22;25589;51.552;13.424;2023-12-29T01:46:56;8.40;99.90
39919;DHT22;25589;51.552;13.424;2023-12-29T01:49:22;8.50;99.90
39919;DHT22;25589;51.552;13.424;2023-12-29T01:51:58;8.50;99.90
39919;DHT22;25589;51.552;13.424;2023-12-29T01:54:28;8.50;99.90
39919;DHT22;25589;51.552;13.424;2023-12-29T01:56:57;8.00;99.90
39919;DHT22;25589;51.552;13.424;2023-12-29T01:59:25;8.50;99.90
39919;DHT22;25589;51.552;13.424;2023-12-29T02:01:51;8.50;99.90
39919;DHT22;25589;51.552;13.424;2023-12-29T02:04:17;8.50;99.90
39919;DHT22;25589;51.552;13.424;2023-12-29T02:06:43;8.50;99.90
39919;DHT22;25589;51.552;13.424;2023-12-29T02:09:08;8.70;99.90
39919;DHT22;25589;51.552;13.424;2023-12-29T02:11:34;8.60;99.90
39919;DHT22;25589;51.552;13.424;2023-12-29T02:14:01;8.90;99.90
39919;DHT22;25589;51.552;13.424;2023-12-29T02:16:38;8.70;99.90
39919;DHT22;25589;51.552;13.424;2023-12-29T02:19:14;8.80;99.90
39919;DHT22;25589;51.552;13.424;2023-12-29T02:25:32;8.60;99.90
39919;DHT22;25589;51.552;13.424;2023-12-29T02:28:43;8.60;99.90
39919;DHT22;25589;51.552;13.424;2023-12-29T02:31:13;8.60;99.90
39919;DHT22;25589;51.552;13.424;2023-12-29T02:33:41;8.60;99.90
39919;DHT22;25589;51.552;13.424;2023-12-29T02:36:08;8.60;99.90
39919;DHT22;25589;51.552;13.424;2023-12-29T02:38:36;8.60;99.90
39919;DHT22;25589;51.552;13.424;2023-12-29T02:43:27;8.70;99.90
39919;DHT22;25589;51.552;13.424;2023-12-29T02:45:53;8.60;99.90
39919;DHT22;25589;51.552;13.424;2023-12-29T02:48:18;8.60;99.90
39919;DHT22;25589;51.552;13.424;2023-12-29T02:50:45;8.70;99.90
39919;DHT22;25589;51.552;13.424;2023-12-29T02:53:11;9.40;99.90
39919;DHT22;25589;51.552;13.424;2023-12-29T02:55:36;8.60;99.90
39919;DHT22;25589;51.552;13.424;2023-12-29T02:58:02;8.40;99.90
39919;DHT22;25589;51.552;13.424;2023-12-29T03:00:28;8.60;99.90
39919;DHT22;25589;51.552;13.424;2023-12-29T03:02:53;8.00;99.90
39919;DHT22;25589;51.552;13.424;2023-12-29T03:05:19;8.70;99.90
39919;DHT22;25589;51.552;13.424;2023-12-29T03:07:44;8.60;99.90
39919;DHT22;25589;51.552;13.424;2023-12-29T03:10:10;8.60;99.90
39919;DHT22;25589;51.552;13.424;2023-12-29T03:12:35;8.60;99.90
39919;DHT22;25589;51.552;13.424;2023-12-29T03:15:01;8.50;99.90
39919;DHT22;25589;51.552;13.424;2023-12-29T03:17:27;8.60;99.90
39919;DHT22;25589;51.552;13.424;2023-12-29T03:19:52;8.60;99.90
39919;DHT22;25589;51.552;13.424;2023-12-29T03:22:18;8.70;99.90
39919;DHT22;25589;51.552;13.424;2023-12-29T03:24:44;8.60;99.90
39919;DHT22;25589;51.552;13.424;2023-12-29T03:27:09;8.60;99.90
39919;DHT22;25589;51.552;13.424;2023-12-29T03:29:36;8.40;99.90
39919;DHT22;25589;51.552;13.424;2023-12-29T03:32:01;8.70;99.90
39919;DHT22;25589;51.552;13.424;2023-12-29T03:34:27;9.10;99.90
39919;DHT22;25589;51.552;13.424;2023-12-29T03:39:18;9.20;99.90
39919;DHT22;25589;51.552;13.424;2023-12-29T03:41:44;8.70;99.90
39919;DHT22;25589;51.552;13.424;2023-12-29T03:44:10;8.00;99.90
39919;DHT22;25589;51.552;13.424;2023-12-29T03:46:35;9.10;99.90
39919;DHT22;25589;51.552;13.424;2023-12-29T03:49:01;9.60;99.90
39919;DHT22;25589;51.552;13.424;2023-12-29T03:51:27;8.60;99.90
39919;DHT22;25589;51.552;13.424;2023-12-29T03:57:41;8.60;99.90
39919;DHT22;25589;51.552;13.424;2023-12-29T04:00:07;8.60;99.90
39919;DHT22;25589;51.552;13.424;2023-12-29T04:02:37;8.60;99.90
39919;DHT22;25589;51.552;13.424;2023-12-29T04:05:05;8.60;99.90
39919;DHT22;25589;51.552;13.424;2023-12-29T04:07:33;8.70;99.90
39919;DHT22;25589;51.552;13.424;2023-12-29T04:09:58;8.50;99.90
39919;DHT22;25589;51.552;13.424;2023-12-29T04:12:24;9.00;99.90
39919;DHT22;25589;51.552;13.424;2023-12-29T04:14:50;8.80;99.90
39919;DHT22;25589;51.552;13.424;2023-12-29T04:17:16;8.80;99.90
39919;DHT22;25589;51.552;13.424;2023-12-29T04:19:42;8.80;99.90
39919;DHT22;25589;51.552;13.424;2023-12-29T04:22:07;8.90;99.90
39919;DHT22;25589;51.552;13.424;2023-12-29T04:24:33;8.80;99.90
39919;DHT22;25589;51.552;13.424;2023-12-29T04:27:03;8.80;99.90
39919;DHT22;25589;51.552;13.424;2023-12-29T04:29:28;9.30;99.90
39919;DHT22;25589;51.552;13.424;2023-12-29T04:31:54;8.80;99.90
39919;DHT22;25589;51.552;13.424;2023-12-29T04:34:20;8.80;99.90
39919;DHT22;25589;51.552;13.424;2023-12-29T04:36:45;8.90;99.90
39919;DHT22;25589;51.552;13.424;2023-12-29T04:39:11;9.30;99.90
39919;DHT22;25589;51.552;13.424;2023-12-29T04:41:37;8.90;99.90
39919;DHT22;25589;51.552;13.424;2023-12-29T04:44:03;9.00;99.90
39919;DHT22;25589;51.552;13.424;2023-12-29T04:46:28;9.00;99.90
39919;DHT22;25589;51.552;13.424;2023-12-29T04:48:54;9.00;99.90
39919;DHT22;25589;51.552;13.424;2023-12-29T04:51:19;9.00;99.90
39919;DHT22;25589;51.552;13.424;2023-12-29T04:53:46;9.10;99.90
39919;DHT22;25589;51.552;13.424;2023-12-29T04:56:11;8.40;99.90
39919;DHT22;25589;51.552;13.424;2023-12-29T04:58:37;9.20;99.90
39919;DHT22;25589;51.552;13.424;2023-12-29T05:01:03;9.30;99.90
39919;DHT22;25589;51.552;13.424;2023-12-29T05:03:29;9.50;99.90
39919;DHT22;25589;51.552;13.424;2023-12-29T05:05:55;9.40;99.90
39919;DHT22;25589;51.552;13.424;2023-12-29T05:08:21;9.40;99.90
39919;DHT22;25589;51.552;13.424;2023-12-29T05:10:46;9.40;99.90
39919;DHT22;25589;51.552;13.424;2023-12-29T05:13:12;9.50;99.90
39919;DHT22;25589;51.552;13.424;2023-12-29T05:15:37;9.40;99.90
39919;DHT22;25589;51.552;13.424;2023-12-29T05:18:03;9.50;99.90
39919;DHT22;25589;51.552;13.424;2023-12-29T05:20:29;9.70;99.90
39919;DHT22;25589;51.552;13.424;2023-12-29T05:22:54;9.50;99.90
39919;DHT22;25589;51.552;13.424;2023-12-29T05:25:20;9.50;99.90
39919;DHT22;25589;51.552;13.424;2023-12-29T05:27:47;9.50;99.90
39919;DHT22;25589;51.552;13.424;2023-12-29T05:30:13;9.60;99.90
39919;DHT22;25589;51.552;13.424;2023-12-29T05:32:39;9.50;99.90
39919;DHT22;25589;51.552;13.424;2023-12-29T05:35:05;9.50;99.90
39919;DHT22;25589;51.552;13.424;2023-12-29T05:37:30;10.10;99.90
39919;DHT22;25589;51.552;13.424;2023-12-29T05:39:56;9.50;99.90
39919;DHT22;25589;51.552;13.424;2023-12-29T05:42:21;9.60;99.90
39919;DHT22;25589;51.552;13.424;2023-12-29T05:44:47;9.50;99.90
39919;DHT22;25589;51.552;13.424;2023-12-29T05:47:12;9.50;99.90
39919;DHT22;25589;51.552;13.424;2023-12-29T05:49:38;9.50;99.90
39919;DHT22;25589;51.552;13.424;2023-12-29T05:52:08;9.50;99.90
39919;DHT22;25589;51.552;13.424;2023-12-29T05:54:34;9.50;99.90
39919;DHT22;25589;51.552;13.424;2023-12-29T05:57:00;9.50;99.90
39919;DHT22;25589;51.552;13.424;2023-12-29T05:59:25;9.50;99.90
39919;DHT22;25589;51.552;13.424;2023-12-29T06:01:51;9.50;99.90
39919;DHT22;25589;51.552;13.424;2023-12-29T06:04:16;9.90;99.90
39919;DHT22;25589;51.552;13.424;2023-12-29T06:06:42;9.70;99.90
39919;DHT22;25589;51.552;13.424;2023-12-29T06:09:09;9.60;99.90
39919;DHT22;25589;51.552;13.424;2023-12-29T06:11:35;9.60;99.90
39919;DHT22;25589;51.552;13.424;2023-12-29T06:14:01;9.60;99.90
39919;DHT22;25589;51.552;13.424;2023-12-29T06:16:26;9.70;99.90
39919;DHT22;25589;51.552;13.424;2023-12-29T06:18:52;10.10;99.90
39919;DHT22;25589;51.552;13.424;2023-12-29T06:21:18;9.60;99.90
39919;DHT22;25589;51.552;13.424;2023-12-29T06:23:44;9.60;99.90
39919;DHT22;25589;51.552;13.424;2023-12-29T06:26:17;9.60;99.90
39919;DHT22;25589;51.552;13.424;2023-12-29T06:28:43;9.60;99.90
39919;DHT22;25589;51.552;13.424;2023-12-29T06:31:09;9.60;99.90
39919;DHT22;25589;51.552;13.424;2023-12-29T06:33:35;9.60;99.90
39919;DHT22;25589;51.552;13.424;2023-12-29T06:36:01;9.60;99.90
39919;DHT22;25589;51.552;13.424;2023-12-29T06:38:26;9.60;99.90
39919;DHT22;25589;51.552;13.424;2023-12-29T06:40:52;9.60;99.90
39919;DHT22;25589;51.552;13.424;2023-12-29T06:43:17;9.60;99.90
39919;DHT22;25589;51.552;13.424;2023-12-29T06:45:43;9.60;99.90
39919;DHT22;25589;51.552;13.424;2023-12-29T06:48:08;9.60;99.90
39919;DHT22;25589;51.552;13.424;2023-12-29T06:50:34;9.60;99.90
39919;DHT22;25589;51.552;13.424;2023-12-29T06:52:59;9.70;99.90
39919;DHT22;25589;51.552;13.424;2023-12-29T06:55:25;9.60;99.90
39919;DHT22;25589;51.552;13.424;2023-12-29T06:57:51;9.70;99.90
39919;DHT22;25589;51.552;13.424;2023-12-29T07:00:16;9.70;99.90
39919;DHT22;25589;51.552;13.424;2023-12-29T07:02:42;9.70;99.90
39919;DHT22;25589;51.552;13.424;2023-12-29T07:05:08;9.70;99.90
39919;DHT22;25589;51.552;13.424;2023-12-29T07:07:35;9.70;99.90
39919;DHT22;25589;51.552;13.424;2023-12-29T07:10:01;9.60;99.90
39919;DHT22;25589;51.552;13.424;2023-12-29T07:12:26;9.70;99.90
39919;DHT22;25589;51.552;13.424;2023-12-29T07:14:52;9.80;99.90
39919;DHT22;25589;51.552;13.424;2023-12-29T07:17:18;9.70;99.90
39919;DHT22;25589;51.552;13.424;2023-12-29T07:19:43;9.70;99.90
39919;DHT22;25589;51.552;13.424;2023-12-29T07:22:09;9.60;99.90
39919;DHT22;25589;51.552;13.424;2023-12-29T07:24:35;9.70;99.90
39919;DHT22;25589;51.552;13.424;2023-12-29T07:27:01;9.60;99.90
39919;DHT22;25589;51.552;13.424;2023-12-29T07:29:27;9.50;99.90
39919;DHT22;25589;51.552;13.424;2023-12-29T07:31:53;9.60;99.90
39919;DHT22;25589;51.552;13.424;2023-12-29T07:34:19;10.20;99.90
39919;DHT22;25589;51.552;13.424;2023-12-29T07:36:45;9.60;99.90
39919;DHT22;25589;51.552;13.424;2023-12-29T07:39:10;9.70;99.90
39919;DHT22;25589;51.552;13.424;2023-12-29T07:41:40;9.70;99.90
39919;DHT22;25589;51.552;13.424;2023-12-29T07:44:06;9.40;99.90
39919;DHT22;25589;51.552;13.424;2023-12-29T07:46:32;9.80;99.90
39919;DHT22;25589;51.552;13.424;2023-12-29T07:48:57;9.70;99.90
39919;DHT22;25589;51.552;13.424;2023-12-29T07:51:23;10.20;99.90
39919;DHT22;25589;51.552;13.424;2023-12-29T07:53:48;9.80;99.90
39919;DHT22;25589;51.552;13.424;2023-12-29T07:56:14;9.70;99.90
39919;DHT22;25589;51.552;13.424;2023-12-29T07:58:40;9.30;99.90
39919;DHT22;25589;51.552;13.424;2023-12-29T08:01:05;9.80;99.90
39919;DHT22;25589;51.552;13.424;2023-12-29T08:03:31;9.80;99.90
39919;DHT22;25589;51.552;13.424;2023-12-29T08:05:56;10.50;99.90
39919;DHT22;25589;51.552;13.424;2023-12-29T08:08:22;9.80;99.90
39919;DHT22;25589;51.552;13.424;2023-12-29T08:10:47;9.90;99.90
39919;DHT22;25589;51.552;13.424;2023-12-29T08:13:13;9.90;99.90
39919;DHT22;25589;51.552;13.424;2023-12-29T08:15:38;10.50;99.90
39919;DHT22;25589;51.552;13.424;2023-12-29T08:18:05;10.00;99.90
39919;DHT22;25589;51.552;13.424;2023-12-29T08:20:30;10.00;99.90
39919;DHT22;25589;51.552;13.424;2023-12-29T08:22:56;10.00;99.90
39919;DHT22;25589;51.552;13.424;2023-12-29T08:25:22;9.90;99.90
39919;DHT22;25589;51.552;13.424;2023-12-29T08:27:48;9.90;99.90
39919;DHT22;25589;51.552;13.424;2023-12-29T08:30:14;10.00;99.90
39919;DHT22;25589;51.552;13.424;2023-12-29T08:32:39;10.00;99.90
39919;DHT22;25589;51.552;13.424;2023-12-29T08:35:05;10.10;99.90
39919;DHT22;25589;51.552;13.424;2023-12-29T08:37:31;10.30;99.90
39919;DHT22;25589;51.552;13.424;2023-12-29T08:39:59;10.30;99.90
39919;DHT22;25589;51.552;13.424;2023-12-29T08:42:24;10.10;99.90
39919;DHT22;25589;51.552;13.424;2023-12-29T08:44:50;10.20;99.90
39919;DHT22;25589;51.552;13.424;2023-12-29T08:47:15;10.20;99.90
39919;DHT22;25589;51.552;13.424;2023-12-29T08:49:41;10.20;99.90
39919;DHT22;25589;51.552;13.424;2023-12-29T08:52:08;10.80;99.90
39919;DHT22;25589;51.552;13.424;2023-12-29T08:54:34;10.30;99.90
39919;DHT22;25589;51.552;13.424;2023-12-29T08:57:00;10.30;99.90
39919;DHT22;25589;51.552;13.424;2023-12-29T08:59:25;10.40;99.90
39919;DHT22;25589;51.552;13.424;2023-12-29T09:01:51;10.80;99.90
39919;DHT22;25589;51.552;13.424;2023-12-29T09:04:16;10.40;99.90
39919;DHT22;25589;51.552;13.424;2023-12-29T09:06:42;10.40;99.90
39919;DHT22;25589;51.552;13.424;2023-12-29T09:09:07;10.50;99.90
39919;DHT22;25589;51.552;13.424;2023-12-29T09:11:40;10.60;99.90
39919;DHT22;25589;51.552;13.424;2023-12-29T09:14:06;10.70;99.90
39919;DHT22;25589;51.552;13.424;2023-12-29T09:16:34;10.90;99.90
39919;DHT22;25589;51.552;13.424;2023-12-29T09:19:00;10.90;99.90
39919;DHT22;25589;51.552;13.424;2023-12-29T09:21:26;11.40;99.90
39919;DHT22;25589;51.552;13.424;2023-12-29T09:23:51;10.80;99.90
39919;DHT22;25589;51.552;13.424;2023-12-29T09:28:43;11.10;99.90
39919;DHT22;25589;51.552;13.424;2023-12-29T09:31:10;11.40;99.90
39919;DHT22;25589;51.552;13.424;2023-12-29T09:33:36;11.00;99.90
39919;DHT22;25589;51.552;13.424;2023-12-29T09:36:03;11.00;99.90
39919;DHT22;25589;51.552;13.424;2023-12-29T09:38:28;10.30;99.90
39919;DHT22;25589;51.552;13.424;2023-12-29T09:40:57;11.10;99.90
39919;DHT22;25589;51.552;13.424;2023-12-29T09:43:25;11.10;99.90
39919;DHT22;25589;51.552;13.424;2023-12-29T09:45:52;11.20;99.90
39919;DHT22;25589;51.552;13.424;2023-12-29T09:48:19;11.30;99.90
39919;DHT22;25589;51.552;13.424;2023-12-29T09:53:12;11.80;99.90
39919;DHT22;25589;51.552;13.424;2023-12-29T09:55:40;11.50;99.90
39919;DHT22;25589;51.552;13.424;2023-12-29T09:58:08;11.70;99.90
39919;DHT22;25589;51.552;13.424;2023-12-29T10:00:35;11.50;99.90
39919;DHT22;25589;51.552;13.424;2023-12-29T10:03:01;11.60;99.90
39919;DHT22;25589;51.552;13.424;2023-12-29T10:05:27;11.10;99.90
39919;DHT22;25589;51.552;13.424;2023-12-29T10:07:53;11.60;99.90
39919;DHT22;25589;51.552;13.424;2023-12-29T10:10:20;11.90;99.90
39919;DHT22;25589;51.552;13.424;2023-12-29T10:12:48;11.40;99.90
39919;DHT22;25589;51.552;13.424;2023-12-29T10:18:00;12.10;99.90
39919;DHT22;25589;51.552;13.424;2023-12-29T10:20:46;11.50;99.90
39919;DHT22;25589;51.552;13.424;2023-12-29T10:25:45;11.50;99.90
39919;DHT22;25589;51.552;13.424;2023-12-29T10:28:13;11.50;99.90
39919;DHT22;25589;51.552;13.424;2023-12-29T10:30:39;11.50;99.90
39919;DHT22;25589;51.552;13.424;2023-12-29T10:33:05;11.60;99.90
39919;DHT22;25589;51.552;13.424;2023-12-29T10:35:31;11.60;99.90
39919;DHT22;25589;51.552;13.424;2023-12-29T10:38:12;10.60;99.90
39919;DHT22;25589;51.552;13.424;2023-12-29T10:40:39;12.00;99.90
39919;DHT22;25589;51.552;13.424;2023-12-29T10:43:04;11.50;99.90
39919;DHT22;25589;51.552;13.424;2023-12-29T10:45:33;12.10;99.90
39919;DHT22;25589;51.552;13.424;2023-12-29T10:48:02;12.10;99.90
39919;DHT22;25589;51.552;13.424;2023-12-29T10:50:28;11.60;99.90
39919;DHT22;25589;51.552;13.424;2023-12-29T10:53:14;12.00;99.90
39919;DHT22;25589;51.552;13.424;2023-12-29T10:55:40;11.70;99.90
39919;DHT22;25589;51.552;13.424;2023-12-29T10:58:05;11.70;99.90
39919;DHT22;25589;51.552;13.424;2023-12-29T11:00:32;11.70;99.90
39919;DHT22;25589;51.552;13.424;2023-12-29T11:03:00;11.90;99.90
39919;DHT22;25589;51.552;13.424;2023-12-29T11:05:26;13.30;99.90
39919;DHT22;25589;51.552;13.424;2023-12-29T11:07:53;11.80;99.90
39919;DHT22;25589;51.552;13.424;2023-12-29T11:10:21;11.80;99.90
39919;DHT22;25589;51.552;13.424;2023-12-29T11:12:48;11.90;99.90
39919;DHT22;25589;51.552;13.424;2023-12-29T11:17:42;11.90;99.90
39919;DHT22;25589;51.552;13.424;2023-12-29T11:20:17;12.10;99.90
39919;DHT22;25589;51.552;13.424;2023-12-29T11:22:46;12.10;99.90
39919;DHT22;25589;51.552;13.424;2023-12-29T11:25:12;12.10;99.90
39919;DHT22;25589;51.552;13.424;2023-12-29T11:27:38;12.30;99.90
39919;DHT22;25589;51.552;13.424;2023-12-29T11:30:04;12.40;99.90
39919;DHT22;25589;51.552;13.424;2023-12-29T11:32:40;13.00;99.90
39919;DHT22;25589;51.552;13.424;2023-12-29T11:35:13;12.60;99.90
39919;DHT22;25589;51.552;13.424;2023-12-29T11:37:56;12.90;99.90
39919;DHT22;25589;51.552;13.424;2023-12-29T11:40:29;12.60;99.90
39919;DHT22;25589;51.552;13.424;2023-12-29T11:42:59;12.60;99.90
39919;DHT22;25589;51.552;13.424;2023-12-29T11:45:29;12.70;99.90
39919;DHT22;25589;51.552;13.424;2023-12-29T11:47:57;12.60;99.90
39919;DHT22;25589;51.552;13.424;2023-12-29T11:50:38;12.80;99.90
39919;DHT22;25589;51.552;13.424;2023-12-29T11:53:08;12.80;99.90
39919;DHT22;25589;51.552;13.424;2023-12-29T11:55:37;12.90;99.90
39919;DHT22;25589;51.552;13.424;2023-12-29T11:58:27;12.90;99.90
39919;DHT22;25589;51.552;13.424;2023-12-29T12:00:56;12.90;99.90
39919;DHT22;25589;51.552;13.424;2023-12-29T12:06:00;12.80;99.90
39919;DHT22;25589;51.552;13.424;2023-12-29T12:08:36;12.90;99.90
39919;DHT22;25589;51.552;13.424;2023-12-29T12:13:54;12.70;99.90
39919;DHT22;25589;51.552;13.424;2023-12-29T12:19:08;12.60;99.90
39919;DHT22;25589;51.552;13.424;2023-12-29T12:21:34;12.50;99.90
39919;DHT22;25589;51.552;13.424;2023-12-29T12:24:03;12.50;99.90
39919;DHT22;25589;51.552;13.424;2023-12-29T12:26:30;12.50;99.90
39919;DHT22;25589;51.552;13.424;2023-12-29T12:28:57;12.40;99.90
39919;DHT22;25589;51.552;13.424;2023-12-29T12:31:22;12.40;99.90
39919;DHT22;25589;51.552;13.424;2023-12-29T12:33:58;12.30;99.90
39919;DHT22;25589;51.552;13.424;2023-12-29T12:36:26;12.30;99.90
39919;DHT22;25589;51.552;13.424;2023-12-29T12:38:57;12.30;99.90
39919;DHT22;25589;51.552;13.424;2023-12-29T12:41:24;12.40;99.90
39919;DHT22;25589;51.552;13.424;2023-12-29T12:46:25;12.30;99.90
39919;DHT22;25589;51.552;13.424;2023-12-29T12:48:51;12.30;99.90
39919;DHT22;25589;51.552;13.424;2023-12-29T12:51:19;12.30;99.90
39919;DHT22;25589;51.552;13.424;2023-12-29T12:53:45;12.30;99.90
39919;DHT22;25589;51.552;13.424;2023-12-29T12:56:13;12.30;99.90
39919;DHT22;25589;51.552;13.424;2023-12-29T12:58:39;12.60;99.90
39919;DHT22;25589;51.552;13.424;2023-12-29T13:01:05;12.60;99.90
39919;DHT22;25589;51.552;13.424;2023-12-29T13:03:31;12.30;99.90
39919;DHT22;25589;51.552;13.424;2023-12-29T13:05:58;12.30;99.90
39919;DHT22;25589;51.552;13.424;2023-12-29T13:08:25;12.40;99.90
39919;DHT22;25589;51.552;13.424;2023-12-29T13:10:51;12.40;99.90
39919;DHT22;25589;51.552;13.424;2023-12-29T13:13:17;12.20;99.90
39919;DHT22;25589;51.552;13.424;2023-12-29T13:15:50;12.40;99.90
39919;DHT22;25589;51.552;13.424;2023-12-29T13:18:16;12.70;99.90
39919;DHT22;25589;51.552;13.424;2023-12-29T13:20:48;12.30;99.90
39919;DHT22;25589;51.552;13.424;2023-12-29T13:23:15;12.40;99.90
39919;DHT22;25589;51.552;13.424;2023-12-29T13:25:43;12.40;99.90
39919;DHT22;25589;51.552;13.424;2023-12-29T13:28:09;12.40;99.90
39919;DHT22;25589;51.552;13.424;2023-12-29T13:30:36;12.50;99.90
39919;DHT22;25589;51.552;13.424;2023-12-29T13:35:37;12.10;99.90
39919;DHT22;25589;51.552;13.424;2023-12-29T13:38:09;12.60;99.90
39919;DHT22;25589;51.552;13.424;2023-12-29T13:41:00;12.60;99.90
39919;DHT22;25589;51.552;13.424;2023-12-29T13:43:30;12.70;99.90
39919;DHT22;25589;51.552;13.424;2023-12-29T13:45:58;12.80;99.90
39919;DHT22;25589;51.552;13.424;2023-12-29T13:48:25;13.30;99.90
39919;DHT22;25589;51.552;13.424;2023-12-29T13:50:51;13.00;99.90
39919;DHT22;25589;51.552;13.424;2023-12-29T13:53:21;13.10;99.90
39919;DHT22;25589;51.552;13.424;2023-12-29T13:55:48;13.10;99.90
39919;DHT22;25589;51.552;13.424;2023-12-29T13:58:16;13.10;99.90
39919;DHT22;25589;51.552;13.424;2023-12-29T14:00:43;13.10;99.90
39919;DHT22;25589;51.552;13.424;2023-12-29T14:03:30;13.20;99.90
39919;DHT22;25589;51.552;13.424;2023-12-29T14:06:07;13.00;99.90
39919;DHT22;25589;51.552;13.424;2023-12-29T14:08:45;12.90;99.90
39919;DHT22;25589;51.552;13.424;2023-12-29T14:11:12;13.10;99.90
39919;DHT22;25589;51.552;13.424;2023-12-29T14:13:45;12.80;99.90
39919;DHT22;25589;51.552;13.424;2023-12-29T14:16:13;12.70;99.90
39919;DHT22;25589;51.552;13.424;2023-12-29T14:21:24;12.50;99.90
39919;DHT22;25589;51.552;13.424;2023-12-29T14:24:10;12.10;99.90
39919;DHT22;25589;51.552;13.424;2023-12-29T14:29:12;12.20;99.90
39919;DHT22;25589;51.552;13.424;2023-12-29T14:31:42;12.00;99.90
39919;DHT22;25589;51.552;13.424;2023-12-29T14:34:09;11.70;99.90
39919;DHT22;25589;51.552;13.424;2023-12-29T14:36:36;11.80;99.90
39919;DHT22;25589;51.552;13.424;2023-12-29T14:39:03;12.50;99.90
39919;DHT22;25589;51.552;13.424;2023-12-29T14:41:29;12.00;99.90
39919;DHT22;25589;51.552;13.424;2023-12-29T14:43:55;11.90;99.90
39919;DHT22;25589;51.552;13.424;2023-12-29T14:46:21;11.90;99.90
39919;DHT22;25589;51.552;13.424;2023-12-29T14:48:47;11.80;99.90
39919;DHT22;25589;51.552;13.424;2023-12-29T14:51:13;11.80;99.90
39919;DHT22;25589;51.552;13.424;2023-12-29T14:53:39;11.90;99.90
39919;DHT22;25589;51.552;13.424;2023-12-29T14:56:05;11.80;99.90
39919;DHT22;25589;51.552;13.424;2023-12-29T14:58:31;11.90;99.90
39919;DHT22;25589;51.552;13.424;2023-12-29T15:01:02;11.80;99.90
39919;DHT22;25589;51.552;13.424;2023-12-29T15:03:28;11.90;99.90
39919;DHT22;25589;51.552;13.424;2023-12-29T15:05:53;11.70;99.90
39919;DHT22;25589;51.552;13.424;2023-12-29T15:08:19;11.70;99.90
39919;DHT22;25589;51.552;13.424;2023-12-29T15:10:45;10.40;99.90
39919;DHT22;25589;51.552;13.424;2023-12-29T15:13:11;12.20;99.90
39919;DHT22;25589;51.552;13.424;2023-12-29T15:15:37;11.90;99.90
39919;DHT22;25589;51.552;13.424;2023-12-29T15:18:03;11.70;99.90
39919;DHT22;25589;51.552;13.424;2023-12-29T15:20:29;11.80;99.90
39919;DHT22;25589;51.552;13.424;2023-12-29T15:22:54;11.80;99.90
39919;DHT22;25589;51.552;13.424;2023-12-29T15:25:25;11.80;99.90
39919;DHT22;25589;51.552;13.424;2023-12-29T15:27:51;11.60;99.90
39919;DHT22;25589;51.552;13.424;2023-12-29T15:30:17;11.70;99.90
39919;DHT22;25589;51.552;13.424;2023-12-29T15:32:43;11.70;99.90
39919;DHT22;25589;51.552;13.424;2023-12-29T15:35:09;11.70;99.90
39919;DHT22;25589;51.552;13.424;2023-12-29T15:37:35;11.60;99.90
39919;DHT22;25589;51.552;13.424;2023-12-29T15:40:01;11.70;99.90
39919;DHT22;25589;51.552;13.424;2023-12-29T15:42:27;11.70;99.90
39919;DHT22;25589;51.552;13.424;2023-12-29T15:44:52;11.70;99.90
39919;DHT22;25589;51.552;13.424;2023-12-29T15:47:18;11.70;99.90
39919;DHT22;25589;51.552;13.424;2023-12-29T15:49:44;11.90;99.90
39919;DHT22;25589;51.552;13.424;2023-12-29T15:52:09;11.70;99.90
39919;DHT22;25589;51.552;13.424;2023-12-29T15:54:35;11.50;99.90
39919;DHT22;25589;51.552;13.424;2023-12-29T15:57:01;11.70;99.90
39919;DHT22;25589;51.552;13.424;2023-12-29T15:59:31;11.70;99.90
39919;DHT22;25589;51.552;13.424;2023-12-29T16:01:57;11.70;99.90
39919;DHT22;25589;51.552;13.424;2023-12-29T16:04:22;11.70;99.90
39919;DHT22;25589;51.552;13.424;2023-12-29T16:06:48;11.70;99.90
39919;DHT22;25589;51.552;13.424;2023-12-29T16:09:15;11.70;99.90